sensor_id;sensor_type;location;lat;lon;timestamp;temperature;humidity
23540;DHT22;11947;50.810;4.394;2022-08-26T00:01:20;22.00;99.90
23540;DHT22;11947;50.810;4.394;2022-08-26T00:03:46;22.00;99.90
23540;DHT22;11947;50.810;4.394;2022-08-26T00:06:12;21.90;99.90
23540;DHT22;11947;50.810;4.394;2022-08-26T00:08:38;21.90;99.90
23540;DHT22;11947;50.810;4.394;2022-08-26T00:11:04;21.90;99.90
23540;DHT22;11947;50.810;4.394;2022-08-26T00:13:30;21.80;99.90
23540;DHT22;11947;50.810;4.394;2022-08-26T00:15:56;21.70;99.90
23540;DHT22;11947;50.810;4.394;2022-08-26T00:18:21;21.80;99.90
23540;DHT22;11947;50.810;4.394;2022-08-26T00:20:47;21.80;99.90
23540;DHT22;11947;50.810;4.394;2022-08-26T00:23:13;21.90;99.90
23540;DHT22;11947;50.810;4.394;2022-08-26T00:25:39;21.80;99.90
23540;DHT22;11947;50.810;4.394;2022-08-26T00:28:05;21.80;99.90
23540;DHT22;11947;50.810;4.394;2022-08-26T00:30:31;21.60;99.90
23540;DHT22;11947;50.810;4.394;2022-08-26T00:32:58;21.70;99.90
23540;DHT22;11947;50.810;4.394;2022-08-26T00:35:25;21.60;99.90
23540;DHT22;11947;50.810;4.394;2022-08-26T00:37:51;21.60;99.90
23540;DHT22;11947;50.810;4.394;2022-08-26T00:40:20;21.50;99.90
23540;DHT22;11947;50.810;4.394;2022-08-26T00:42:47;21.40;99.90
23540;DHT22;11947;50.810;4.394;2022-08-26T00:45:14;21.30;99.90
23540;DHT22;11947;50.810;4.394;2022-08-26T00:47:52;21.30;99.90
23540;DHT22;11947;50.810;4.394;2022-08-26T00:50:25;21.40;99.90
23540;DHT22;11947;50.810;4.394;2022-08-26T00:52:52;21.40;99.90
23540;DHT22;11947;50.810;4.394;2022-08-26T00:55:33;21.40;99.90
23540;DHT22;11947;50.810;4.394;2022-08-26T00:58:01;21.50;99.90
23540;DHT22;11947;50.810;4.394;2022-08-26T01:00:29;21.50;99.90
23540;DHT22;11947;50.810;4.394;2022-08-26T01:02:56;21.60;99.90
23540;DHT22;11947;50.810;4.394;2022-08-26T01:05:23;21.50;99.90
23540;DHT22;11947;50.810;4.394;2022-08-26T01:07:49;21.40;99.90
23540;DHT22;11947;50.810;4.394;2022-08-26T01:10:19;21.40;99.90
23540;DHT22;11947;50.810;4.394;2022-08-26T01:12:50;21.40;99.90
23540;DHT22;11947;50.810;4.394;2022-08-26T01:15:28;21.50;99.90
23540;DHT22;11947;50.810;4.394;2022-08-26T01:17:57;21.30;99.90
23540;DHT22;11947;50.810;4.394;2022-08-26T01:20:33;21.30;99.90
23540;DHT22;11947;50.810;4.394;2022-08-26T01:23:05;21.30;99.90
23540;DHT22;11947;50.810;4.394;2022-08-26T01:25:33;21.20;99.90
23540;DHT22;11947;50.810;4.394;2022-08-26T01:28:02;21.30;99.90
23540;DHT22;11947;50.810;4.394;2022-08-26T01:30:31;21.30;99.90
23540;DHT22;11947;50.810;4.394;2022-08-26T01:32:58;21.40;99.90
23540;DHT22;11947;50.810;4.394;2022-08-26T01:35:26;21.40;99.90
23540;DHT22;11947;50.810;4.394;2022-08-26T01:37:53;21.40;99.90
23540;DHT22;11947;50.810;4.394;2022-08-26T01:40:26;21.30;99.90
23540;DHT22;11947;50.810;4.394;2022-08-26T01:42:54;21.30;99.90
23540;DHT22;11947;50.810;4.394;2022-08-26T01:45:25;21.20;99.90
23540;DHT22;11947;50.810;4.394;2022-08-26T01:47:54;21.30;99.90
23540;DHT22;11947;50.810;4.394;2022-08-26T01:50:28;21.30;99.90
23540;DHT22;11947;50.810;4.394;2022-08-26T01:52:56;21.20;99.90
23540;DHT22;11947;50.810;4.394;2022-08-26T01:55:22;21.10;99.90
23540;DHT22;11947;50.810;4.394;2022-08-26T01:57:51;21.20;99.90
23540;DHT22;11947;50.810;4.394;2022-08-26T02:00:17;21.30;99.90
23540;DHT22;11947;50.810;4.394;2022-08-26T02:02:45;21.30;99.90
23540;DHT22;11947;50.810;4.394;2022-08-26T02:05:18;21.30;99.90
23540;DHT22;11947;50.810;4.394;2022-08-26T02:07:45;21.30;99.90
23540;DHT22;11947;50.810;4.394;2022-08-26T02:10:13;21.20;99.90
23540;DHT22;11947;50.810;4.394;2022-08-26T02:12:39;21.20;99.90
23540;DHT22;11947;50.810;4.394;2022-08-26T02:15:07;21.40;99.90
23540;DHT22;11947;50.810;4.394;2022-08-26T02:17:38;21.50;99.90
23540;DHT22;11947;50.810;4.394;2022-08-26T02:20:05;21.30;99.90
23540;DHT22;11947;50.810;4.394;2022-08-26T02:22:31;21.20;99.90
23540;DHT22;11947;50.810;4.394;2022-08-26T02:27:45;21.30;99.90
23540;DHT22;11947;50.810;4.394;2022-08-26T02:30:16;21.30;99.90
23540;DHT22;11947;50.810;4.394;2022-08-26T02:32:43;21.30;99.90
23540;DHT22;11947;50.810;4.394;2022-08-26T02:35:11;21.40;99.90
23540;DHT22;11947;50.810;4.394;2022-08-26T02:37:38;21.40;99.90
23540;DHT22;11947;50.810;4.394;2022-08-26T02:40:05;21.30;99.90
23540;DHT22;11947;50.810;4.394;2022-08-26T02:42:32;21.40;99.90
23540;DHT22;11947;50.810;4.394;2022-08-26T02:44:58;21.30;99.90
23540;DHT22;11947;50.810;4.394;2022-08-26T02:47:24;21.30;99.90
23540;DHT22;11947;50.810;4.394;2022-08-26T02:49:50;21.40;99.90
23540;DHT22;11947;50.810;4.394;2022-08-26T02:52:16;21.30;99.90
23540;DHT22;11947;50.810;4.394;2022-08-26T02:54:42;21.30;99.90
23540;DHT22;11947;50.810;4.394;2022-08-26T02:57:08;21.30;99.90
23540;DHT22;11947;50.810;4.394;2022-08-26T02:59:34;21.40;99.90
23540;DHT22;11947;50.810;4.394;2022-08-26T03:02:00;21.40;99.90
23540;DHT22;11947;50.810;4.394;2022-08-26T03:04:26;21.40;99.90
23540;DHT22;11947;50.810;4.394;2022-08-26T03:06:52;21.40;99.90
23540;DHT22;11947;50.810;4.394;2022-08-26T03:09:18;21.40;99.90
23540;DHT22;11947;50.810;4.394;2022-08-26T03:11:44;21.40;99.90
23540;DHT22;11947;50.810;4.394;2022-08-26T03:14:11;21.40;99.90
23540;DHT22;11947;50.810;4.394;2022-08-26T03:16:37;21.40;99.90
23540;DHT22;11947;50.810;4.394;2022-08-26T03:19:06;21.40;99.90
23540;DHT22;11947;50.810;4.394;2022-08-26T03:21:33;21.40;99.90
23540;DHT22;11947;50.810;4.394;2022-08-26T03:23:59;21.40;99.90
23540;DHT22;11947;50.810;4.394;2022-08-26T03:26:26;21.40;99.90
23540;DHT22;11947;50.810;4.394;2022-08-26T03:28:52;21.40;99.90
23540;DHT22;11947;50.810;4.394;2022-08-26T03:31:36;21.30;99.90
23540;DHT22;11947;50.810;4.394;2022-08-26T03:34:01;21.30;99.90
23540;DHT22;11947;50.810;4.394;2022-08-26T03:36:28;21.20;99.90
23540;DHT22;11947;50.810;4.394;2022-08-26T03:38:54;21.20;99.90
23540;DHT22;11947;50.810;4.394;2022-08-26T03:41:20;21.10;99.90
23540;DHT22;11947;50.810;4.394;2022-08-26T03:43:46;21.10;99.90
23540;DHT22;11947;50.810;4.394;2022-08-26T03:46:13;21.10;99.90
23540;DHT22;11947;50.810;4.394;2022-08-26T03:48:39;21.10;99.90
23540;DHT22;11947;50.810;4.394;2022-08-26T03:51:11;21.10;99.90
23540;DHT22;11947;50.810;4.394;2022-08-26T03:53:37;21.20;99.90
23540;DHT22;11947;50.810;4.394;2022-08-26T03:56:03;21.20;99.90
23540;DHT22;11947;50.810;4.394;2022-08-26T03:58:29;21.10;99.90
23540;DHT22;11947;50.810;4.394;2022-08-26T04:00:56;21.10;99.90
23540;DHT22;11947;50.810;4.394;2022-08-26T04:03:22;21.10;99.90
23540;DHT22;11947;50.810;4.394;2022-08-26T04:06:07;21.30;99.90
23540;DHT22;11947;50.810;4.394;2022-08-26T04:08:32;21.20;99.90
23540;DHT22;11947;50.810;4.394;2022-08-26T04:10:58;21.10;99.90
23540;DHT22;11947;50.810;4.394;2022-08-26T04:13:26;21.00;99.90
23540;DHT22;11947;50.810;4.394;2022-08-26T04:15:52;21.20;99.90
23540;DHT22;11947;50.810;4.394;2022-08-26T04:18:17;21.10;99.90
23540;DHT22;11947;50.810;4.394;2022-08-26T04:20:43;21.10;99.90
23540;DHT22;11947;50.810;4.394;2022-08-26T04:23:08;21.10;99.90
23540;DHT22;11947;50.810;4.394;2022-08-26T04:25:34;21.20;99.90
23540;DHT22;11947;50.810;4.394;2022-08-26T04:28:00;21.10;99.90
23540;DHT22;11947;50.810;4.394;2022-08-26T04:30:25;21.20;99.90
23540;DHT22;11947;50.810;4.394;2022-08-26T04:32:52;21.10;99.90
23540;DHT22;11947;50.810;4.394;2022-08-26T04:35:17;21.10;99.90
23540;DHT22;11947;50.810;4.394;2022-08-26T04:37:43;21.00;99.90
23540;DHT22;11947;50.810;4.394;2022-08-26T04:40:09;21.00;99.90
23540;DHT22;11947;50.810;4.394;2022-08-26T04:42:35;21.10;99.90
23540;DHT22;11947;50.810;4.394;2022-08-26T04:45:01;21.00;99.90
23540;DHT22;11947;50.810;4.394;2022-08-26T04:47:27;21.00;99.90
23540;DHT22;11947;50.810;4.394;2022-08-26T04:49:54;20.90;99.90
23540;DHT22;11947;50.810;4.394;2022-08-26T04:52:20;20.90;99.90
23540;DHT22;11947;50.810;4.394;2022-08-26T04:54:45;21.10;99.90
23540;DHT22;11947;50.810;4.394;2022-08-26T04:57:11;21.10;99.90
23540;DHT22;11947;50.810;4.394;2022-08-26T04:59:36;21.10;99.90
23540;DHT22;11947;50.810;4.394;2022-08-26T05:02:02;21.20;99.90
23540;DHT22;11947;50.810;4.394;2022-08-26T05:04:28;21.20;99.90
23540;DHT22;11947;50.810;4.394;2022-08-26T05:06:54;21.20;99.90
23540;DHT22;11947;50.810;4.394;2022-08-26T05:09:20;21.10;99.90
23540;DHT22;11947;50.810;4.394;2022-08-26T05:11:46;21.00;99.90
23540;DHT22;11947;50.810;4.394;2022-08-26T05:14:13;21.00;99.90
23540;DHT22;11947;50.810;4.394;2022-08-26T05:16:39;21.10;99.90
23540;DHT22;11947;50.810;4.394;2022-08-26T05:19:05;21.10;99.90
23540;DHT22;11947;50.810;4.394;2022-08-26T05:21:31;21.10;99.90
23540;DHT22;11947;50.810;4.394;2022-08-26T05:23:58;21.20;99.90
23540;DHT22;11947;50.810;4.394;2022-08-26T05:26:27;21.30;99.90
23540;DHT22;11947;50.810;4.394;2022-08-26T05:28:54;21.20;99.90
23540;DHT22;11947;50.810;4.394;2022-08-26T05:31:26;21.10;99.90
23540;DHT22;11947;50.810;4.394;2022-08-26T05:33:53;21.20;99.90
23540;DHT22;11947;50.810;4.394;2022-08-26T05:36:20;21.30;99.90
23540;DHT22;11947;50.810;4.394;2022-08-26T05:38:47;21.30;99.90
23540;DHT22;11947;50.810;4.394;2022-08-26T05:41:18;21.30;99.90
23540;DHT22;11947;50.810;4.394;2022-08-26T05:43:45;21.30;99.90
23540;DHT22;11947;50.810;4.394;2022-08-26T05:46:11;21.20;99.90
23540;DHT22;11947;50.810;4.394;2022-08-26T05:48:37;21.20;99.90
23540;DHT22;11947;50.810;4.394;2022-08-26T05:51:10;21.20;99.90
23540;DHT22;11947;50.810;4.394;2022-08-26T05:53:36;21.10;99.90
23540;DHT22;11947;50.810;4.394;2022-08-26T05:56:04;21.10;99.90
23540;DHT22;11947;50.810;4.394;2022-08-26T05:58:32;21.00;99.90
23540;DHT22;11947;50.810;4.394;2022-08-26T06:01:08;21.10;99.90
23540;DHT22;11947;50.810;4.394;2022-08-26T06:03:36;21.10;99.90
23540;DHT22;11947;50.810;4.394;2022-08-26T06:06:05;21.00;99.90
23540;DHT22;11947;50.810;4.394;2022-08-26T06:08:33;21.10;99.90
23540;DHT22;11947;50.810;4.394;2022-08-26T06:11:00;21.10;99.90
23540;DHT22;11947;50.810;4.394;2022-08-26T06:13:28;21.00;99.90
23540;DHT22;11947;50.810;4.394;2022-08-26T06:15:54;21.00;99.90
23540;DHT22;11947;50.810;4.394;2022-08-26T06:18:29;20.90;99.90
23540;DHT22;11947;50.810;4.394;2022-08-26T06:20:58;20.90;99.90
23540;DHT22;11947;50.810;4.394;2022-08-26T06:23:25;20.90;99.90
23540;DHT22;11947;50.810;4.394;2022-08-26T06:26:10;21.00;99.90
23540;DHT22;11947;50.810;4.394;2022-08-26T06:28:36;21.10;99.90
23540;DHT22;11947;50.810;4.394;2022-08-26T06:31:02;21.00;99.90
23540;DHT22;11947;50.810;4.394;2022-08-26T06:33:27;21.00;99.90
23540;DHT22;11947;50.810;4.394;2022-08-26T06:35:53;21.10;99.90
23540;DHT22;11947;50.810;4.394;2022-08-26T06:38:19;21.20;99.90
23540;DHT22;11947;50.810;4.394;2022-08-26T06:40:48;21.30;99.90
23540;DHT22;11947;50.810;4.394;2022-08-26T06:43:16;21.30;99.90
23540;DHT22;11947;50.810;4.394;2022-08-26T06:45:43;21.50;99.90
23540;DHT22;11947;50.810;4.394;2022-08-26T06:48:13;21.50;99.90
23540;DHT22;11947;50.810;4.394;2022-08-26T06:50:39;21.60;99.90
23540;DHT22;11947;50.810;4.394;2022-08-26T06:53:05;21.70;99.90
23540;DHT22;11947;50.810;4.394;2022-08-26T06:55:33;21.90;99.90
23540;DHT22;11947;50.810;4.394;2022-08-26T06:58:03;21.90;99.90
23540;DHT22;11947;50.810;4.394;2022-08-26T07:00:28;22.00;99.90
23540;DHT22;11947;50.810;4.394;2022-08-26T07:02:56;21.90;99.90
23540;DHT22;11947;50.810;4.394;2022-08-26T07:05:22;21.90;99.90
23540;DHT22;11947;50.810;4.394;2022-08-26T07:07:50;21.90;99.90
23540;DHT22;11947;50.810;4.394;2022-08-26T07:10:17;22.00;99.90
23540;DHT22;11947;50.810;4.394;2022-08-26T07:12:43;21.90;99.90
23540;DHT22;11947;50.810;4.394;2022-08-26T07:15:09;21.90;99.90
23540;DHT22;11947;50.810;4.394;2022-08-26T07:17:35;21.80;99.90
23540;DHT22;11947;50.810;4.394;2022-08-26T07:20:00;21.80;99.90
23540;DHT22;11947;50.810;4.394;2022-08-26T07:22:28;21.80;99.90
23540;DHT22;11947;50.810;4.394;2022-08-26T07:24:53;21.80;99.90
23540;DHT22;11947;50.810;4.394;2022-08-26T07:27:19;21.90;99.90
23540;DHT22;11947;50.810;4.394;2022-08-26T07:29:45;21.90;99.90
23540;DHT22;11947;50.810;4.394;2022-08-26T07:32:12;21.90;99.90
23540;DHT22;11947;50.810;4.394;2022-08-26T07:34:39;21.90;99.90
23540;DHT22;11947;50.810;4.394;2022-08-26T07:37:05;21.90;99.90
23540;DHT22;11947;50.810;4.394;2022-08-26T07:39:31;22.20;99.90
23540;DHT22;11947;50.810;4.394;2022-08-26T07:42:00;22.10;99.90
23540;DHT22;11947;50.810;4.394;2022-08-26T07:44:26;22.20;99.90
23540;DHT22;11947;50.810;4.394;2022-08-26T07:46:52;22.30;99.90
23540;DHT22;11947;50.810;4.394;2022-08-26T07:49:18;22.10;99.90
23540;DHT22;11947;50.810;4.394;2022-08-26T07:51:44;22.10;99.90
23540;DHT22;11947;50.810;4.394;2022-08-26T07:54:10;22.30;99.90
23540;DHT22;11947;50.810;4.394;2022-08-26T07:56:35;22.30;99.90
23540;DHT22;11947;50.810;4.394;2022-08-26T07:59:02;22.40;99.90
23540;DHT22;11947;50.810;4.394;2022-08-26T08:01:28;22.40;99.90
23540;DHT22;11947;50.810;4.394;2022-08-26T08:03:56;22.40;99.90
23540;DHT22;11947;50.810;4.394;2022-08-26T08:06:24;22.40;99.90
23540;DHT22;11947;50.810;4.394;2022-08-26T08:08:50;22.40;99.90
23540;DHT22;11947;50.810;4.394;2022-08-26T08:11:19;22.50;99.90
23540;DHT22;11947;50.810;4.394;2022-08-26T08:13:46;22.50;99.90
23540;DHT22;11947;50.810;4.394;2022-08-26T08:16:12;22.60;99.90
23540;DHT22;11947;50.810;4.394;2022-08-26T08:18:38;22.80;99.90
23540;DHT22;11947;50.810;4.394;2022-08-26T08:21:04;22.70;99.90
23540;DHT22;11947;50.810;4.394;2022-08-26T08:23:30;22.70;99.90
23540;DHT22;11947;50.810;4.394;2022-08-26T08:26:01;22.60;99.90
23540;DHT22;11947;50.810;4.394;2022-08-26T08:28:29;22.50;99.90
23540;DHT22;11947;50.810;4.394;2022-08-26T08:30:54;22.50;99.90
23540;DHT22;11947;50.810;4.394;2022-08-26T08:33:20;22.50;99.90
23540;DHT22;11947;50.810;4.394;2022-08-26T08:35:47;22.50;99.90
23540;DHT22;11947;50.810;4.394;2022-08-26T08:38:13;22.50;99.90
23540;DHT22;11947;50.810;4.394;2022-08-26T08:40:41;22.50;99.90
23540;DHT22;11947;50.810;4.394;2022-08-26T08:43:39;22.50;99.90
23540;DHT22;11947;50.810;4.394;2022-08-26T08:46:10;22.60;99.90
23540;DHT22;11947;50.810;4.394;2022-08-26T08:48:40;22.50;99.90
23540;DHT22;11947;50.810;4.394;2022-08-26T08:53:53;22.60;99.90
23540;DHT22;11947;50.810;4.394;2022-08-26T08:56:30;22.60;99.90
23540;DHT22;11947;50.810;4.394;2022-08-26T08:59:02;22.50;99.90
23540;DHT22;11947;50.810;4.394;2022-08-26T09:06:57;22.60;99.90
23540;DHT22;11947;50.810;4.394;2022-08-26T09:09:39;22.60;99.90
23540;DHT22;11947;50.810;4.394;2022-08-26T09:12:13;22.60;99.90
23540;DHT22;11947;50.810;4.394;2022-08-26T09:14:48;22.40;99.90
23540;DHT22;11947;50.810;4.394;2022-08-26T09:19:47;22.40;99.90
23540;DHT22;11947;50.810;4.394;2022-08-26T09:22:32;22.50;99.90
23540;DHT22;11947;50.810;4.394;2022-08-26T09:24:58;22.70;99.90
23540;DHT22;11947;50.810;4.394;2022-08-26T09:27:45;22.70;99.90
23540;DHT22;11947;50.810;4.394;2022-08-26T09:30:27;22.70;99.90
23540;DHT22;11947;50.810;4.394;2022-08-26T09:35:33;22.80;99.90
23540;DHT22;11947;50.810;4.394;2022-08-26T09:38:00;22.80;99.90
23540;DHT22;11947;50.810;4.394;2022-08-26T09:40:33;22.80;99.90
23540;DHT22;11947;50.810;4.394;2022-08-26T09:43:11;22.90;99.90
23540;DHT22;11947;50.810;4.394;2022-08-26T09:45:45;22.80;99.90
23540;DHT22;11947;50.810;4.394;2022-08-26T09:48:24;22.90;99.90
23540;DHT22;11947;50.810;4.394;2022-08-26T09:50:52;22.80;99.90
23540;DHT22;11947;50.810;4.394;2022-08-26T09:53:20;22.90;99.90
23540;DHT22;11947;50.810;4.394;2022-08-26T09:58:35;23.00;99.90
23540;DHT22;11947;50.810;4.394;2022-08-26T10:01:07;23.20;99.90
23540;DHT22;11947;50.810;4.394;2022-08-26T10:03:36;23.30;99.90
23540;DHT22;11947;50.810;4.394;2022-08-26T10:06:20;23.50;99.90
23540;DHT22;11947;50.810;4.394;2022-08-26T10:08:54;23.50;99.90
23540;DHT22;11947;50.810;4.394;2022-08-26T10:11:21;23.70;99.90
23540;DHT22;11947;50.810;4.394;2022-08-26T10:13:55;23.80;99.90
23540;DHT22;11947;50.810;4.394;2022-08-26T10:16:26;23.90;99.90
23540;DHT22;11947;50.810;4.394;2022-08-26T10:19:02;24.00;99.90
23540;DHT22;11947;50.810;4.394;2022-08-26T10:24:06;23.80;99.90
23540;DHT22;11947;50.810;4.394;2022-08-26T10:29:34;23.80;99.90
23540;DHT22;11947;50.810;4.394;2022-08-26T10:32:11;23.70;99.90
23540;DHT22;11947;50.810;4.394;2022-08-26T10:34:38;23.80;99.90
23540;DHT22;11947;50.810;4.394;2022-08-26T10:37:17;23.90;99.90
23540;DHT22;11947;50.810;4.394;2022-08-26T10:40:05;24.10;99.90
23540;DHT22;11947;50.810;4.394;2022-08-26T10:43:24;24.00;99.90
23540;DHT22;11947;50.810;4.394;2022-08-26T10:45:32;24.30;99.90
23540;DHT22;11947;50.810;4.394;2022-08-26T10:48:04;24.30;99.90
23540;DHT22;11947;50.810;4.394;2022-08-26T10:50:57;24.40;99.90
23540;DHT22;11947;50.810;4.394;2022-08-26T10:54:03;24.30;99.90
23540;DHT22;11947;50.810;4.394;2022-08-26T11:02:14;24.20;99.90
23540;DHT22;11947;50.810;4.394;2022-08-26T11:04:45;24.10;99.90
23540;DHT22;11947;50.810;4.394;2022-08-26T11:07:36;24.10;99.90
23540;DHT22;11947;50.810;4.394;2022-08-26T11:18:09;25.40;99.90
23540;DHT22;11947;50.810;4.394;2022-08-26T11:20:42;25.50;99.90
23540;DHT22;11947;50.810;4.394;2022-08-26T11:31:08;27.50;99.90
23540;DHT22;11947;50.810;4.394;2022-08-26T11:36:10;27.20;99.90
23540;DHT22;11947;50.810;4.394;2022-08-26T11:38:40;27.40;99.90
23540;DHT22;11947;50.810;4.394;2022-08-26T11:41:17;27.00;99.90
23540;DHT22;11947;50.810;4.394;2022-08-26T11:43:45;26.40;99.90
23540;DHT22;11947;50.810;4.394;2022-08-26T11:46:23;26.60;99.90
23540;DHT22;11947;50.810;4.394;2022-08-26T11:48:48;27.00;99.90
23540;DHT22;11947;50.810;4.394;2022-08-26T11:51:22;27.50;99.90
23540;DHT22;11947;50.810;4.394;2022-08-26T11:53:49;28.20;99.90
23540;DHT22;11947;50.810;4.394;2022-08-26T11:58:59;29.00;99.90
23540;DHT22;11947;50.810;4.394;2022-08-26T12:01:33;28.70;99.90
23540;DHT22;11947;50.810;4.394;2022-08-26T12:04:04;28.20;99.90
23540;DHT22;11947;50.810;4.394;2022-08-26T12:06:38;27.30;99.90
23540;DHT22;11947;50.810;4.394;2022-08-26T12:09:23;26.80;99.90
23540;DHT22;11947;50.810;4.394;2022-08-26T12:11:49;26.90;99.90
23540;DHT22;11947;50.810;4.394;2022-08-26T12:14:25;27.10;99.90
23540;DHT22;11947;50.810;4.394;2022-08-26T12:16:51;27.10;99.90
23540;DHT22;11947;50.810;4.394;2022-08-26T12:19:28;27.70;99.90
23540;DHT22;11947;50.810;4.394;2022-08-26T12:22:46;27.90;99.90
23540;DHT22;11947;50.810;4.394;2022-08-26T12:25:07;28.20;99.90
23540;DHT22;11947;50.810;4.394;2022-08-26T12:27:37;29.40;99.90
23540;DHT22;11947;50.810;4.394;2022-08-26T12:32:35;31.40;99.90
23540;DHT22;11947;50.810;4.394;2022-08-26T12:35:02;31.40;98.70
23540;DHT22;11947;50.810;4.394;2022-08-26T12:37:33;31.20;98.40
23540;DHT22;11947;50.810;4.394;2022-08-26T12:40:32;30.80;99.20
23540;DHT22;11947;50.810;4.394;2022-08-26T12:43:01;30.60;99.70
23540;DHT22;11947;50.810;4.394;2022-08-26T12:48:04;29.10;99.90
23540;DHT22;11947;50.810;4.394;2022-08-26T12:50:37;28.90;99.90
23540;DHT22;11947;50.810;4.394;2022-08-26T12:53:04;28.80;99.90
23540;DHT22;11947;50.810;4.394;2022-08-26T12:55:52;29.00;99.90
23540;DHT22;11947;50.810;4.394;2022-08-26T12:58:34;30.50;99.90
23540;DHT22;11947;50.810;4.394;2022-08-26T13:03:31;33.30;94.50
23540;DHT22;11947;50.810;4.394;2022-08-26T13:08:55;36.00;88.50
23540;DHT22;11947;50.810;4.394;2022-08-26T13:11:28;35.30;87.10
23540;DHT22;11947;50.810;4.394;2022-08-26T13:14:07;34.20;91.20
23540;DHT22;11947;50.810;4.394;2022-08-26T13:16:33;34.10;90.10
23540;DHT22;11947;50.810;4.394;2022-08-26T13:19:03;33.40;91.20
23540;DHT22;11947;50.810;4.394;2022-08-26T13:21:32;32.10;91.80
23540;DHT22;11947;50.810;4.394;2022-08-26T13:24:08;31.10;93.50
23540;DHT22;11947;50.810;4.394;2022-08-26T13:26:36;30.50;94.30
23540;DHT22;11947;50.810;4.394;2022-08-26T13:29:03;29.40;95.60
23540;DHT22;11947;50.810;4.394;2022-08-26T13:31:30;28.80;98.20
23540;DHT22;11947;50.810;4.394;2022-08-26T13:33:56;28.30;98.00
23540;DHT22;11947;50.810;4.394;2022-08-26T13:36:22;27.80;98.20
23540;DHT22;11947;50.810;4.394;2022-08-26T13:38:48;27.40;99.20
23540;DHT22;11947;50.810;4.394;2022-08-26T13:41:14;27.40;99.90
23540;DHT22;11947;50.810;4.394;2022-08-26T13:43:40;27.00;99.90
23540;DHT22;11947;50.810;4.394;2022-08-26T13:46:06;26.80;99.90
23540;DHT22;11947;50.810;4.394;2022-08-26T13:48:32;26.60;99.90
23540;DHT22;11947;50.810;4.394;2022-08-26T13:50:59;26.70;99.90
23540;DHT22;11947;50.810;4.394;2022-08-26T13:53:27;26.70;99.90
23540;DHT22;11947;50.810;4.394;2022-08-26T13:55:55;26.60;99.90
23540;DHT22;11947;50.810;4.394;2022-08-26T13:58:20;26.40;99.90
23540;DHT22;11947;50.810;4.394;2022-08-26T14:00:46;26.20;99.90
23540;DHT22;11947;50.810;4.394;2022-08-26T14:03:12;26.30;99.90
23540;DHT22;11947;50.810;4.394;2022-08-26T14:05:39;26.30;99.90
23540;DHT22;11947;50.810;4.394;2022-08-26T14:08:04;26.80;99.90
23540;DHT22;11947;50.810;4.394;2022-08-26T14:10:30;27.10;99.90
23540;DHT22;11947;50.810;4.394;2022-08-26T14:12:56;27.30;99.90
23540;DHT22;11947;50.810;4.394;2022-08-26T14:15:22;27.40;99.90
23540;DHT22;11947;50.810;4.394;2022-08-26T14:17:48;27.50;99.90
23540;DHT22;11947;50.810;4.394;2022-08-26T14:20:25;28.00;99.90
23540;DHT22;11947;50.810;4.394;2022-08-26T14:22:52;28.20;99.80
23540;DHT22;11947;50.810;4.394;2022-08-26T14:25:18;28.00;99.90
23540;DHT22;11947;50.810;4.394;2022-08-26T14:27:44;27.60;99.90
23540;DHT22;11947;50.810;4.394;2022-08-26T14:30:10;27.10;99.90
23540;DHT22;11947;50.810;4.394;2022-08-26T14:32:38;26.80;99.90
23540;DHT22;11947;50.810;4.394;2022-08-26T14:35:05;27.10;99.90
23540;DHT22;11947;50.810;4.394;2022-08-26T14:37:30;27.80;99.90
23540;DHT22;11947;50.810;4.394;2022-08-26T14:39:56;28.20;99.90
23540;DHT22;11947;50.810;4.394;2022-08-26T14:42:24;27.70;99.90
23540;DHT22;11947;50.810;4.394;2022-08-26T14:44:55;27.30;99.90
23540;DHT22;11947;50.810;4.394;2022-08-26T14:47:21;27.00;99.90
23540;DHT22;11947;50.810;4.394;2022-08-26T14:49:47;27.10;99.90
23540;DHT22;11947;50.810;4.394;2022-08-26T14:52:12;27.00;99.90
23540;DHT22;11947;50.810;4.394;2022-08-26T14:54:38;27.10;99.90
23540;DHT22;11947;50.810;4.394;2022-08-26T14:57:06;27.30;99.90
23540;DHT22;11947;50.810;4.394;2022-08-26T14:59:35;27.20;99.90
23540;DHT22;11947;50.810;4.394;2022-08-26T15:02:02;27.00;99.90
23540;DHT22;11947;50.810;4.394;2022-08-26T15:04:28;26.80;99.90
23540;DHT22;11947;50.810;4.394;2022-08-26T15:06:55;26.60;99.90
23540;DHT22;11947;50.810;4.394;2022-08-26T15:09:22;26.20;99.90
23540;DHT22;11947;50.810;4.394;2022-08-26T15:11:48;26.20;99.90
23540;DHT22;11947;50.810;4.394;2022-08-26T15:14:15;25.70;99.90
23540;DHT22;11947;50.810;4.394;2022-08-26T15:16:41;25.40;99.90
23540;DHT22;11947;50.810;4.394;2022-08-26T15:19:07;25.20;99.90
23540;DHT22;11947;50.810;4.394;2022-08-26T15:21:34;25.20;99.90
23540;DHT22;11947;50.810;4.394;2022-08-26T15:24:01;25.30;99.90
23540;DHT22;11947;50.810;4.394;2022-08-26T15:26:28;25.60;99.90
23540;DHT22;11947;50.810;4.394;2022-08-26T15:28:54;25.90;99.90
23540;DHT22;11947;50.810;4.394;2022-08-26T15:31:25;25.90;99.90
23540;DHT22;11947;50.810;4.394;2022-08-26T15:33:56;25.80;99.90
23540;DHT22;11947;50.810;4.394;2022-08-26T15:36:24;25.30;99.90
23540;DHT22;11947;50.810;4.394;2022-08-26T15:38:50;25.00;99.90
23540;DHT22;11947;50.810;4.394;2022-08-26T15:41:15;25.20;99.90
23540;DHT22;11947;50.810;4.394;2022-08-26T15:43:41;25.10;99.90
23540;DHT22;11947;50.810;4.394;2022-08-26T15:46:10;25.20;99.90
23540;DHT22;11947;50.810;4.394;2022-08-26T15:48:36;25.10;99.90
23540;DHT22;11947;50.810;4.394;2022-08-26T15:51:02;25.00;99.90
23540;DHT22;11947;50.810;4.394;2022-08-26T15:53:30;25.10;99.90
23540;DHT22;11947;50.810;4.394;2022-08-26T15:55:58;25.20;99.90
23540;DHT22;11947;50.810;4.394;2022-08-26T15:58:24;25.30;99.90
23540;DHT22;11947;50.810;4.394;2022-08-26T16:00:50;25.40;99.90
23540;DHT22;11947;50.810;4.394;2022-08-26T16:03:17;25.30;99.90
23540;DHT22;11947;50.810;4.394;2022-08-26T16:05:43;25.30;99.90
23540;DHT22;11947;50.810;4.394;2022-08-26T16:08:09;25.20;99.90
23540;DHT22;11947;50.810;4.394;2022-08-26T16:10:37;24.70;99.90
23540;DHT22;11947;50.810;4.394;2022-08-26T16:13:03;24.60;99.90
23540;DHT22;11947;50.810;4.394;2022-08-26T16:15:31;24.50;99.90
23540;DHT22;11947;50.810;4.394;2022-08-26T16:17:58;24.40;99.90
23540;DHT22;11947;50.810;4.394;2022-08-26T16:20:27;24.20;99.90
23540;DHT22;11947;50.810;4.394;2022-08-26T16:22:53;24.20;99.90
23540;DHT22;11947;50.810;4.394;2022-08-26T16:25:19;24.20;99.90
23540;DHT22;11947;50.810;4.394;2022-08-26T16:27:45;24.30;99.90
23540;DHT22;11947;50.810;4.394;2022-08-26T16:30:12;24.10;99.90
23540;DHT22;11947;50.810;4.394;2022-08-26T16:32:37;24.00;99.90
23540;DHT22;11947;50.810;4.394;2022-08-26T16:35:03;24.00;99.90
23540;DHT22;11947;50.810;4.394;2022-08-26T16:37:29;23.90;99.90
23540;DHT22;11947;50.810;4.394;2022-08-26T16:39:55;24.00;99.90
23540;DHT22;11947;50.810;4.394;2022-08-26T16:42:21;24.00;99.90